createdAt,value
2019-03-09T00:00:11.941Z,3.85
2019-03-09T00:02:40.632Z,3.42
2019-03-09T00:05:12.308Z,3.22
2019-03-09T00:07:39.356Z,3.20
2019-03-09T00:10:08.411Z,3.70
2019-03-09T00:12:34.790Z,2.87
2019-03-09T00:15:04.701Z,2.80
2019-03-09T00:19:58.015Z,3.40
2019-03-09T00:22:24.184Z,2.62
2019-03-09T00:24:56.710Z,2.60
2019-03-09T00:27:30.147Z,2.47
2019-03-09T00:29:59.645Z,2.60
2019-03-09T00:32:27.223Z,2.30
2019-03-09T00:34:54.047Z,2.72
2019-03-09T00:37:20.280Z,2.60
2019-03-09T00:39:46.490Z,2.60
2019-03-09T00:42:14.072Z,2.50
2019-03-09T00:44:40.296Z,2.02
2019-03-09T00:47:06.825Z,2.05
2019-03-09T00:49:34.054Z,2.00
2019-03-09T00:52:00.125Z,1.82
2019-03-09T00:54:26.300Z,2.02
2019-03-09T00:56:52.388Z,2.05
2019-03-09T00:59:18.551Z,1.42
2019-03-09T01:01:44.624Z,1.92
2019-03-09T01:04:12.921Z,1.50
2019-03-09T01:06:39.023Z,1.50
2019-03-09T01:09:07.014Z,1.67
2019-03-09T01:11:35.945Z,1.80
2019-03-09T01:14:03.305Z,1.95
2019-03-09T01:16:29.385Z,2.08
2019-03-09T01:18:55.638Z,1.40
2019-03-09T01:21:21.761Z,1.70
2019-03-09T01:23:47.972Z,1.90
2019-03-09T01:26:14.133Z,1.75
2019-03-09T01:28:40.194Z,1.40
2019-03-09T01:31:06.379Z,1.50
2019-03-09T01:33:34.030Z,1.85
2019-03-09T01:36:00.197Z,1.72
2019-03-09T01:38:27.000Z,1.62
2019-03-09T01:40:53.389Z,1.75
2019-03-09T01:43:21.039Z,1.52
2019-03-09T01:45:47.231Z,1.77
2019-03-09T01:48:13.316Z,1.47
2019-03-09T01:50:39.476Z,1.75
2019-03-09T01:53:05.591Z,1.80
2019-03-09T01:55:32.098Z,1.77
2019-03-09T01:57:58.165Z,1.17
2019-03-09T02:00:24.454Z,1.75
2019-03-09T02:02:50.680Z,1.30
2019-03-09T02:05:16.896Z,1.22
2019-03-09T02:07:43.074Z,1.50
2019-03-09T02:10:11.083Z,1.57
2019-03-09T02:12:37.408Z,1.00
2019-03-09T02:15:07.188Z,1.40
2019-03-09T02:17:33.309Z,1.30
2019-03-09T02:20:00.071Z,1.47
2019-03-09T02:22:26.190Z,1.42
2019-03-09T02:24:52.309Z,1.40
2019-03-09T02:27:18.428Z,1.30
2019-03-09T02:29:44.930Z,1.10
2019-03-09T02:32:12.040Z,1.52
2019-03-09T02:34:38.128Z,1.10
2019-03-09T02:37:04.270Z,1.65
2019-03-09T02:39:32.359Z,1.35
2019-03-09T02:41:58.651Z,1.57
2019-03-09T02:44:24.867Z,1.55
2019-03-09T02:46:52.328Z,1.60
2019-03-09T02:49:18.522Z,1.32
2019-03-09T02:51:50.704Z,1.32
2019-03-09T02:54:16.909Z,1.45
2019-03-09T02:56:43.020Z,1.15
2019-03-09T02:59:09.202Z,1.32
2019-03-09T03:01:52.285Z,1.60
2019-03-09T03:04:18.540Z,1.42
2019-03-09T03:06:45.084Z,1.50
2019-03-09T03:09:11.254Z,1.60
2019-03-09T03:11:38.542Z,1.37
2019-03-09T03:14:06.382Z,1.50
2019-03-09T03:16:32.501Z,1.25
2019-03-09T03:18:58.680Z,2.05
2019-03-09T03:21:25.142Z,1.30
2019-03-09T03:23:51.325Z,1.65
2019-03-09T03:26:17.549Z,1.45
2019-03-09T03:28:43.813Z,1.80
2019-03-09T03:31:10.075Z,1.12
2019-03-09T03:33:36.349Z,1.65
2019-03-09T03:36:02.497Z,1.30
2019-03-09T03:38:28.592Z,1.30
2019-03-09T03:40:54.736Z,1.25
2019-03-09T03:43:20.885Z,1.50
2019-03-09T03:45:47.003Z,1.95
2019-03-09T03:48:13.322Z,1.47
2019-03-09T03:50:40.166Z,1.70
2019-03-09T03:53:06.264Z,1.30
2019-03-09T03:55:35.961Z,1.42
2019-03-09T03:58:02.252Z,1.40
2019-03-09T04:00:28.441Z,1.57
2019-03-09T04:02:54.569Z,1.45
2019-03-09T04:05:23.379Z,1.10
2019-03-09T04:07:49.599Z,1.40
2019-03-09T04:10:16.056Z,1.27
2019-03-09T04:12:42.298Z,1.40
2019-03-09T04:15:08.922Z,1.77
2019-03-09T04:17:35.134Z,1.50
2019-03-09T04:20:02.255Z,1.40
2019-03-09T04:22:28.543Z,1.20
2019-03-09T04:24:54.926Z,1.30
2019-03-09T04:27:21.084Z,1.40
2019-03-09T04:29:47.390Z,1.02
2019-03-09T04:32:13.461Z,1.60
2019-03-09T04:34:39.634Z,1.37
2019-03-09T04:37:05.729Z,1.50
2019-03-09T04:39:31.973Z,1.47
2019-03-09T04:41:58.138Z,1.40
2019-03-09T04:44:24.448Z,1.50
2019-03-09T04:46:50.669Z,1.20
2019-03-09T04:49:16.873Z,1.30
2019-03-09T04:51:43.656Z,1.90
2019-03-09T04:54:10.025Z,1.20
2019-03-09T04:56:36.191Z,1.42
2019-03-09T04:59:02.267Z,1.47
2019-03-09T05:01:28.437Z,1.42
2019-03-09T05:04:01.193Z,1.32
2019-03-09T05:06:27.590Z,1.80
2019-03-09T05:08:57.509Z,1.70
2019-03-09T05:11:23.858Z,1.57
2019-03-09T05:13:51.653Z,2.00
2019-03-09T05:16:17.793Z,1.57
2019-03-09T05:18:43.931Z,1.60
2019-03-09T05:21:10.059Z,1.77
2019-03-09T05:23:38.937Z,1.70
2019-03-09T05:26:05.050Z,1.45
2019-03-09T05:28:31.245Z,1.37
2019-03-09T05:30:57.345Z,2.02
2019-03-09T05:33:23.605Z,1.40
2019-03-09T05:35:49.667Z,1.72
2019-03-09T05:38:15.845Z,1.90
2019-03-09T05:40:42.009Z,1.47
2019-03-09T05:43:08.250Z,1.50
2019-03-09T05:45:34.473Z,2.15
2019-03-09T05:48:00.647Z,1.52
2019-03-09T05:50:26.731Z,1.37
2019-03-09T05:53:20.656Z,2.20
2019-03-09T05:55:47.916Z,1.62
2019-03-09T05:58:14.043Z,2.10
2019-03-09T06:00:42.113Z,2.08
2019-03-09T06:03:08.404Z,1.80
2019-03-09T06:05:36.385Z,1.40
2019-03-09T06:08:03.207Z,1.80
2019-03-09T06:10:29.347Z,1.72
2019-03-09T06:12:55.556Z,1.85
2019-03-09T06:15:21.780Z,2.12
2019-03-09T06:17:47.900Z,2.37
2019-03-09T06:20:14.037Z,2.60
2019-03-09T06:22:40.154Z,2.50
2019-03-09T06:25:06.419Z,2.08
2019-03-09T06:27:32.659Z,2.15
2019-03-09T06:29:58.923Z,1.80
2019-03-09T06:32:34.824Z,2.10
2019-03-09T06:35:01.572Z,2.22
2019-03-09T06:37:29.598Z,2.10
2019-03-09T06:39:56.027Z,2.15
2019-03-09T06:42:25.966Z,2.30
2019-03-09T06:44:52.086Z,1.60
2019-03-09T06:47:18.196Z,2.17
2019-03-09T06:49:44.403Z,1.75
2019-03-09T06:52:10.514Z,1.77
2019-03-09T06:54:36.697Z,1.75
2019-03-09T06:57:02.895Z,2.00
2019-03-09T06:59:29.066Z,1.92
2019-03-09T07:01:55.131Z,1.92
2019-03-09T07:04:21.303Z,1.67
2019-03-09T07:06:47.497Z,1.87
2019-03-09T07:09:13.665Z,2.00
2019-03-09T07:11:39.764Z,1.27
2019-03-09T07:14:26.151Z,1.80
2019-03-09T07:16:52.262Z,1.45
2019-03-09T07:19:18.410Z,1.47
2019-03-09T07:21:44.532Z,1.10
2019-03-09T07:24:10.662Z,1.30
2019-03-09T07:26:36.783Z,1.32
2019-03-09T07:29:02.925Z,1.10
2019-03-09T07:31:29.238Z,1.00
2019-03-09T07:34:14.598Z,1.20
2019-03-09T07:36:40.712Z,1.00
2019-03-09T07:39:06.895Z,1.15
2019-03-09T07:41:33.770Z,1.00
2019-03-09T07:43:59.961Z,0.98
2019-03-09T07:46:26.016Z,0.80
2019-03-09T07:48:52.213Z,0.65
2019-03-09T07:51:18.277Z,0.80
2019-03-09T07:53:45.560Z,0.68
2019-03-09T07:56:11.740Z,0.80
2019-03-09T07:58:39.055Z,0.90
2019-03-09T08:01:05.153Z,1.00
2019-03-09T08:03:31.343Z,0.93
2019-03-09T08:05:57.454Z,0.90
2019-03-09T08:08:23.598Z,0.70
2019-03-09T08:10:49.771Z,0.80
2019-03-09T08:13:15.908Z,0.80
2019-03-09T08:15:42.100Z,0.80
2019-03-09T08:18:08.249Z,0.57
2019-03-09T08:20:34.474Z,0.60
2019-03-09T08:23:00.633Z,0.50
2019-03-09T08:25:26.721Z,0.62
2019-03-09T08:27:52.901Z,0.55
2019-03-09T08:30:20.889Z,0.53
2019-03-09T08:32:47.062Z,0.80
2019-03-09T08:35:14.831Z,0.50
2019-03-09T08:37:41.007Z,0.78
2019-03-09T08:40:13.428Z,0.50
2019-03-09T08:42:39.924Z,0.70
2019-03-09T08:45:08.740Z,0.68
2019-03-09T08:47:34.916Z,0.70
2019-03-09T08:50:01.269Z,0.80
2019-03-09T08:52:27.842Z,0.50
2019-03-09T08:54:53.990Z,0.62
2019-03-09T08:57:20.104Z,0.50
2019-03-09T08:59:46.308Z,0.80
2019-03-09T09:02:12.391Z,0.50
2019-03-09T09:04:38.594Z,0.57
2019-03-09T09:07:04.714Z,0.47
2019-03-09T09:09:30.842Z,0.50
2019-03-09T09:11:56.965Z,0.40
2019-03-09T09:14:23.100Z,0.60
2019-03-09T09:16:51.676Z,0.50
2019-03-09T09:19:19.753Z,0.60
2019-03-09T09:21:45.869Z,0.50
2019-03-09T09:24:13.010Z,0.50
2019-03-09T09:26:39.220Z,0.40
2019-03-09T09:29:05.368Z,0.47
2019-03-09T09:31:32.509Z,0.40
2019-03-09T09:33:58.666Z,0.50
2019-03-09T09:36:24.766Z,0.50
2019-03-09T09:38:50.995Z,0.50
2019-03-09T09:41:17.131Z,0.50
2019-03-09T09:43:43.222Z,0.40
2019-03-09T09:46:09.329Z,0.40
2019-03-09T09:48:35.517Z,1.02
2019-03-09T09:51:01.655Z,0.82
2019-03-09T09:53:27.891Z,0.45
2019-03-09T09:55:54.005Z,0.60
2019-03-09T09:58:20.132Z,0.60
2019-03-09T10:00:46.248Z,1.00
2019-03-09T10:03:12.365Z,0.70
2019-03-09T10:05:38.493Z,0.50
2019-03-09T10:08:04.658Z,0.60
2019-03-09T10:10:30.722Z,0.62
2019-03-09T10:12:57.972Z,0.70
2019-03-09T10:15:26.075Z,0.70
2019-03-09T10:17:53.317Z,0.72
2019-03-09T10:20:19.645Z,0.65
2019-03-09T10:22:45.834Z,0.70
2019-03-09T10:25:13.040Z,0.70
2019-03-09T10:27:39.278Z,0.75
2019-03-09T10:30:17.347Z,0.70
2019-03-09T10:32:43.512Z,0.70
2019-03-09T10:35:09.692Z,0.70
2019-03-09T10:37:35.878Z,0.70
2019-03-09T10:40:03.439Z,0.80
2019-03-09T10:42:29.709Z,0.70
2019-03-09T10:44:55.767Z,0.80
2019-03-09T10:47:21.954Z,0.68
2019-03-09T10:49:48.043Z,0.70
2019-03-09T10:52:14.263Z,0.75
2019-03-09T10:54:40.340Z,0.90
2019-03-09T10:57:06.713Z,0.80
2019-03-09T10:59:32.987Z,0.72
2019-03-09T11:01:59.123Z,1.05
2019-03-09T11:04:27.793Z,0.98
2019-03-09T11:06:53.278Z,1.00
2019-03-09T11:09:19.453Z,0.68
2019-03-09T11:11:45.617Z,0.80
2019-03-09T11:14:11.740Z,0.82
2019-03-09T11:16:37.906Z,0.70
2019-03-09T11:19:04.069Z,0.72
2019-03-09T11:21:30.176Z,0.70
2019-03-09T11:23:56.386Z,1.00
2019-03-09T11:26:22.461Z,1.30
2019-03-09T11:28:48.638Z,1.27
2019-03-09T11:31:14.817Z,1.22
2019-03-09T11:33:40.892Z,1.00
2019-03-09T11:36:07.070Z,1.00
2019-03-09T11:38:33.179Z,1.60
2019-03-09T11:41:00.848Z,1.42
2019-03-09T11:43:27.195Z,1.35
2019-03-09T11:45:53.378Z,1.60
2019-03-09T11:48:19.442Z,1.00
2019-03-09T11:50:45.617Z,1.10
2019-03-09T11:53:11.759Z,0.78
2019-03-09T11:55:37.956Z,1.42
2019-03-09T11:58:04.125Z,0.93
2019-03-09T12:00:32.194Z,0.98
2019-03-09T12:02:58.257Z,1.20
2019-03-09T12:05:24.550Z,1.00
2019-03-09T12:07:50.903Z,0.90
2019-03-09T12:10:17.118Z,0.78
2019-03-09T12:12:43.289Z,0.78
2019-03-09T12:15:13.275Z,1.00
2019-03-09T12:17:39.514Z,0.85
2019-03-09T12:20:08.063Z,1.07
2019-03-09T12:22:34.186Z,0.80
2019-03-09T12:25:00.401Z,1.15
2019-03-09T12:27:26.636Z,0.85
2019-03-09T12:29:52.846Z,1.05
2019-03-09T12:32:19.049Z,0.90
2019-03-09T12:34:45.314Z,0.72
2019-03-09T12:37:12.476Z,1.32
2019-03-09T12:39:38.608Z,1.05
2019-03-09T12:42:04.724Z,1.12
2019-03-09T12:44:31.845Z,1.00
2019-03-09T12:46:57.974Z,0.90
2019-03-09T12:49:24.113Z,1.10
2019-03-09T12:51:50.262Z,1.22
2019-03-09T12:54:16.377Z,1.20
2019-03-09T12:56:46.395Z,1.00
2019-03-09T13:02:51.466Z,0.93
2019-03-09T14:12:35.020Z,0.90
2019-03-09T14:15:01.902Z,0.78
2019-03-09T14:17:28.170Z,1.20
2019-03-09T14:19:54.308Z,0.90
2019-03-09T14:22:20.424Z,0.90
2019-03-09T14:24:46.553Z,0.93
2019-03-09T14:27:12.658Z,0.90
2019-03-09T14:29:38.785Z,1.15
2019-03-09T14:32:05.119Z,1.00
2019-03-09T14:34:31.286Z,0.93
2019-03-09T14:36:57.357Z,1.05
2019-03-09T14:39:25.738Z,0.90
2019-03-09T14:41:51.970Z,0.88
2019-03-09T14:44:18.189Z,0.62
2019-03-09T14:46:44.414Z,0.80
2019-03-09T14:49:10.656Z,0.60
2019-03-09T14:51:36.859Z,0.60
2019-03-09T14:54:03.137Z,0.90
2019-03-09T14:56:29.599Z,1.10
2019-03-09T14:58:55.715Z,0.95
2019-03-09T15:01:30.958Z,1.00
2019-03-09T15:03:57.784Z,1.47
2019-03-09T15:06:23.954Z,1.40
2019-03-09T15:08:51.607Z,1.12
2019-03-09T15:11:17.724Z,1.10
2019-03-09T15:13:46.380Z,1.02
2019-03-09T15:16:12.675Z,1.00
2019-03-09T15:18:38.797Z,0.82
2019-03-09T15:21:04.910Z,0.70
2019-03-09T15:23:32.724Z,0.72
2019-03-09T15:25:59.117Z,1.00
2019-03-09T15:28:26.134Z,0.93
2019-03-09T15:30:53.178Z,0.88
2019-03-09T15:33:21.754Z,0.85
2019-03-09T15:35:53.414Z,0.95
2019-03-09T15:38:20.050Z,0.90
2019-03-09T15:40:48.662Z,0.65
2019-03-09T15:43:16.268Z,0.70
2019-03-09T15:45:44.240Z,0.80
2019-03-09T15:48:10.510Z,0.70
2019-03-09T15:50:36.693Z,0.80
2019-03-09T15:53:02.882Z,0.82
2019-03-09T15:55:29.146Z,2.75
2019-03-09T15:57:58.123Z,0.70
2019-03-09T16:00:24.448Z,1.07
2019-03-09T16:02:50.847Z,1.52
2019-03-09T16:05:17.153Z,3.47
2019-03-09T16:07:43.332Z,0.60
2019-03-09T16:10:12.232Z,0.70
2019-03-09T16:12:38.751Z,0.65
2019-03-09T16:15:06.421Z,0.50
2019-03-09T16:17:33.350Z,0.47
2019-03-09T16:20:01.886Z,0.80
2019-03-09T16:22:29.111Z,0.57
2019-03-09T16:24:55.271Z,0.57
2019-03-09T16:27:21.386Z,0.70
2019-03-09T16:29:49.745Z,0.50
2019-03-09T16:32:16.847Z,0.60
2019-03-09T16:34:42.988Z,0.40
2019-03-09T16:37:09.123Z,0.40
2019-03-09T16:39:35.308Z,0.50
2019-03-09T16:42:01.451Z,0.50
2019-03-09T16:44:27.628Z,0.40
2019-03-09T16:46:55.348Z,0.42
2019-03-09T16:49:21.519Z,0.40
2019-03-09T16:51:47.633Z,0.50
2019-03-09T16:54:14.941Z,0.50
2019-03-09T16:56:41.014Z,0.80
2019-03-09T16:59:07.197Z,0.62
2019-03-09T17:01:33.293Z,0.50
2019-03-09T17:03:59.495Z,0.50
2019-03-09T17:06:25.560Z,0.50
2019-03-09T17:08:51.749Z,0.75
2019-03-09T17:11:18.107Z,0.53
2019-03-09T17:13:44.166Z,0.60
2019-03-09T17:16:10.457Z,0.40
2019-03-09T17:18:36.544Z,0.60
2019-03-09T17:21:02.738Z,0.78
2019-03-09T17:23:29.864Z,0.80
2019-03-09T17:25:56.057Z,0.60
2019-03-09T17:28:22.136Z,0.72
2019-03-09T17:30:48.312Z,0.70
2019-03-09T17:33:14.449Z,0.60
2019-03-09T17:35:40.770Z,0.70
2019-03-09T17:38:07.010Z,0.93
2019-03-09T17:40:33.244Z,0.60
2019-03-09T17:42:59.460Z,0.50
2019-03-09T17:45:26.973Z,0.50
2019-03-09T17:47:53.287Z,0.60
2019-03-09T17:50:19.425Z,0.68
2019-03-09T17:52:46.720Z,0.40
2019-03-09T17:55:12.884Z,0.60
2019-03-09T17:57:39.007Z,0.62
2019-03-09T18:00:12.114Z,0.80
2019-03-09T18:02:38.199Z,0.60
2019-03-09T18:05:10.516Z,0.80
2019-03-09T18:07:36.597Z,0.90
2019-03-09T18:10:06.556Z,0.90
2019-03-09T18:15:02.108Z,0.93
2019-03-09T18:17:28.492Z,1.75
2019-03-09T18:19:55.124Z,0.68
2019-03-09T18:22:21.429Z,0.60
2019-03-09T18:24:47.522Z,0.98
2019-03-09T18:27:17.339Z,1.35
2019-03-09T18:29:43.474Z,1.37
2019-03-09T18:32:09.736Z,1.07
2019-03-09T18:34:35.985Z,0.90
2019-03-09T18:37:02.302Z,0.90
2019-03-09T18:39:28.508Z,1.62
2019-03-09T18:41:54.725Z,0.90
2019-03-09T18:44:20.900Z,0.70
2019-03-09T18:46:47.293Z,1.00
2019-03-09T18:49:13.515Z,0.90
2019-03-09T18:51:39.616Z,1.02
2019-03-09T18:54:05.889Z,0.90
2019-03-09T18:56:32.487Z,0.72
2019-03-09T18:58:59.196Z,1.00
2019-03-09T19:01:25.883Z,1.02
2019-03-09T19:03:52.391Z,0.90
2019-03-09T19:06:19.224Z,1.05
2019-03-09T19:08:46.120Z,1.25
2019-03-09T19:11:19.130Z,0.60
2019-03-09T19:13:48.040Z,2.05
2019-03-09T19:16:14.900Z,1.30
2019-03-09T19:18:42.774Z,0.85
2019-03-09T19:21:09.564Z,0.53
2019-03-09T19:23:36.534Z,0.57
2019-03-09T19:26:03.234Z,0.60
2019-03-09T19:28:30.953Z,0.70
2019-03-09T19:30:57.527Z,0.53
2019-03-09T19:33:24.188Z,0.80
2019-03-09T19:35:50.908Z,1.00
2019-03-09T19:38:19.506Z,1.00
2019-03-09T19:40:46.214Z,0.80
2019-03-09T19:43:12.942Z,0.90
2019-03-09T19:45:43.471Z,1.92
2019-03-09T19:48:13.503Z,0.98
2019-03-09T19:50:40.031Z,1.27
2019-03-09T19:53:06.945Z,1.10
2019-03-09T19:55:36.215Z,1.62
2019-03-09T19:58:05.545Z,1.05
2019-03-09T20:00:32.491Z,1.20
2019-03-09T20:02:59.372Z,0.82
2019-03-09T20:05:26.402Z,1.72
2019-03-09T20:07:54.745Z,0.98
2019-03-09T20:10:22.600Z,0.93
2019-03-09T20:12:54.115Z,1.07
2019-03-09T20:15:21.940Z,1.47
2019-03-09T20:17:48.415Z,1.00
2019-03-09T20:20:18.298Z,1.07
2019-03-09T20:22:45.049Z,1.00
2019-03-09T20:25:13.169Z,0.90
2019-03-09T20:27:39.992Z,0.80
2019-03-09T20:30:17.651Z,0.95
2019-03-09T20:32:44.337Z,1.05
2019-03-09T20:35:11.438Z,1.40
2019-03-09T20:37:38.261Z,1.12
2019-03-09T20:40:10.896Z,0.88
2019-03-09T20:42:37.690Z,1.07
2019-03-09T20:45:10.473Z,0.82
2019-03-09T20:47:37.361Z,1.57
2019-03-09T20:50:12.552Z,1.62
2019-03-09T20:52:42.452Z,1.40
2019-03-09T20:55:11.832Z,0.78
2019-03-09T20:57:38.654Z,0.90
2019-03-09T21:00:18.844Z,1.37
2019-03-09T21:02:45.790Z,1.27
2019-03-09T21:08:32.455Z,1.27
2019-03-09T21:11:03.894Z,0.85
2019-03-09T21:13:28.337Z,1.50
2019-03-09T21:15:54.958Z,1.37
2019-03-09T21:18:23.653Z,1.37
2019-03-09T21:20:50.388Z,1.57
2019-03-09T21:23:19.246Z,1.15
2019-03-09T21:25:47.511Z,1.25
2019-03-09T21:28:15.137Z,1.10
2019-03-09T21:30:42.145Z,1.20
2019-03-09T21:33:08.832Z,1.40
2019-03-09T21:35:35.643Z,1.42
2019-03-09T21:38:02.582Z,1.20
2019-03-09T21:40:29.812Z,0.90
2019-03-09T21:42:57.572Z,1.42
2019-03-09T21:45:25.079Z,1.70
2019-03-09T21:47:52.607Z,1.37
2019-03-09T21:50:19.509Z,1.10
2019-03-09T21:52:46.243Z,1.57
2019-03-09T21:55:14.437Z,1.15
2019-03-09T21:57:41.250Z,1.35
2019-03-09T22:00:11.510Z,1.20
2019-03-09T22:02:38.468Z,1.40
2019-03-09T22:05:12.567Z,1.20
2019-03-09T22:07:41.261Z,1.10
2019-03-09T22:10:11.433Z,1.30
2019-03-09T22:12:38.255Z,1.05
2019-03-09T22:15:12.883Z,1.25
2019-03-09T22:17:39.724Z,1.30
2019-03-09T22:20:13.975Z,1.20
2019-03-09T22:22:41.079Z,1.20
2019-03-09T22:25:17.374Z,0.90
2019-03-09T22:27:44.761Z,1.15
2019-03-09T22:30:16.394Z,1.40
2019-03-09T22:33:04.710Z,1.77
2019-03-09T22:35:31.460Z,1.35
2019-03-09T22:37:58.099Z,1.10
2019-03-09T22:40:24.745Z,0.98
2019-03-09T22:42:51.406Z,1.25
2019-03-09T22:45:17.676Z,1.00
2019-03-09T22:47:44.364Z,1.12
2019-03-09T22:50:18.771Z,1.30
2019-03-09T22:52:56.296Z,1.90
2019-03-09T22:55:23.030Z,1.35
2019-03-09T22:57:52.318Z,1.25
2019-03-09T23:00:44.230Z,1.05
2019-03-09T23:03:10.941Z,0.95
2019-03-09T23:05:37.276Z,1.22
2019-03-09T23:08:03.377Z,1.20
2019-03-09T23:10:29.562Z,1.17
2019-03-09T23:12:55.738Z,1.05
2019-03-09T23:15:22.307Z,1.40
2019-03-09T23:17:48.528Z,1.00
2019-03-09T23:20:15.462Z,1.17
2019-03-09T23:22:41.786Z,1.15
2019-03-09T23:25:09.818Z,0.98
2019-03-09T23:27:36.631Z,1.17
2019-03-09T23:30:14.851Z,0.80
2019-03-09T23:32:42.356Z,1.05
2019-03-09T23:35:08.809Z,1.10
2019-03-09T23:37:35.344Z,1.22
2019-03-09T23:40:01.784Z,1.00
2019-03-09T23:42:27.939Z,0.95
2019-03-09T23:44:54.411Z,1.10
2019-03-09T23:47:20.754Z,1.20
2019-03-09T23:49:47.151Z,1.25
2019-03-09T23:52:13.322Z,0.80
2019-03-09T23:54:39.600Z,1.32
2019-03-09T23:57:07.811Z,1.10
2019-03-09T23:59:33.963Z,1.27
